sensor_id;sensor_type;location;lat;lon;timestamp;P1;durP1;ratioP1;P2;durP2;ratioP2
44270;SDS011;29963;44.594;11.368;2022-09-09T00:06:49;10.43;;;4.18;;
44270;SDS011;29963;44.594;11.368;2022-09-09T00:09:25;6.05;;;3.72;;
44270;SDS011;29963;44.594;11.368;2022-09-09T00:17:26;11.95;;;3.90;;
44270;SDS011;29963;44.594;11.368;2022-09-09T00:22:25;6.22;;;3.63;;
44270;SDS011;29963;44.594;11.368;2022-09-09T00:24:56;5.78;;;3.88;;
44270;SDS011;29963;44.594;11.368;2022-09-09T00:27:45;6.85;;;4.57;;
44270;SDS011;29963;44.594;11.368;2022-09-09T00:30:17;5.82;;;4.28;;
44270;SDS011;29963;44.594;11.368;2022-09-09T00:32:48;6.85;;;4.18;;
44270;SDS011;29963;44.594;11.368;2022-09-09T00:35:23;9.32;;;4.57;;
44270;SDS011;29963;44.594;11.368;2022-09-09T00:37:54;6.38;;;3.70;;
44270;SDS011;29963;44.594;11.368;2022-09-09T00:40:35;8.23;;;5.40;;
44270;SDS011;29963;44.594;11.368;2022-09-09T00:43:25;5.75;;;4.68;;
44270;SDS011;29963;44.594;11.368;2022-09-09T00:48:27;6.88;;;4.60;;
44270;SDS011;29963;44.594;11.368;2022-09-09T00:59:50;9.88;;;3.95;;
44270;SDS011;29963;44.594;11.368;2022-09-09T01:02:41;4.63;;;3.78;;
44270;SDS011;29963;44.594;11.368;2022-09-09T01:05:15;5.22;;;3.92;;
44270;SDS011;29963;44.594;11.368;2022-09-09T01:07:52;10.98;;;4.20;;
44270;SDS011;29963;44.594;11.368;2022-09-09T01:11:01;8.57;;;4.13;;
44270;SDS011;29963;44.594;11.368;2022-09-09T01:13:19;6.78;;;4.30;;
44270;SDS011;29963;44.594;11.368;2022-09-09T01:15:50;10.88;;;4.93;;
44270;SDS011;29963;44.594;11.368;2022-09-09T01:18:19;8.35;;;5.07;;
44270;SDS011;29963;44.594;11.368;2022-09-09T01:28:42;8.95;;;4.57;;
44270;SDS011;29963;44.594;11.368;2022-09-09T01:31:11;11.40;;;4.90;;
44270;SDS011;29963;44.594;11.368;2022-09-09T01:33:42;7.82;;;4.40;;
44270;SDS011;29963;44.594;11.368;2022-09-09T01:36:09;8.95;;;4.72;;
44270;SDS011;29963;44.594;11.368;2022-09-09T01:38:46;9.32;;;4.35;;
44270;SDS011;29963;44.594;11.368;2022-09-09T01:41:12;8.77;;;4.47;;
44270;SDS011;29963;44.594;11.368;2022-09-09T01:43:37;8.00;;;4.43;;
44270;SDS011;29963;44.594;11.368;2022-09-09T01:46:03;8.20;;;4.60;;
44270;SDS011;29963;44.594;11.368;2022-09-09T01:48:29;8.05;;;4.43;;
44270;SDS011;29963;44.594;11.368;2022-09-09T01:50:55;6.43;;;4.25;;
44270;SDS011;29963;44.594;11.368;2022-09-09T01:53:21;8.75;;;4.30;;
44270;SDS011;29963;44.594;11.368;2022-09-09T02:06:59;5.63;;;3.88;;
44270;SDS011;29963;44.594;11.368;2022-09-09T02:09:25;10.75;;;4.63;;
44270;SDS011;29963;44.594;11.368;2022-09-09T02:12:05;7.25;;;4.72;;
44270;SDS011;29963;44.594;11.368;2022-09-09T02:14:38;10.35;;;4.47;;
44270;SDS011;29963;44.594;11.368;2022-09-09T02:17:09;7.75;;;4.07;;
44270;SDS011;29963;44.594;11.368;2022-09-09T02:19:37;8.45;;;4.40;;
44270;SDS011;29963;44.594;11.368;2022-09-09T02:22:07;7.28;;;4.32;;
44270;SDS011;29963;44.594;11.368;2022-09-09T02:24:35;9.05;;;5.10;;
44270;SDS011;29963;44.594;11.368;2022-09-09T02:27:05;7.57;;;3.83;;
44270;SDS011;29963;44.594;11.368;2022-09-09T02:29:38;7.15;;;4.38;;
44270;SDS011;29963;44.594;11.368;2022-09-09T02:32:07;4.53;;;3.88;;
44270;SDS011;29963;44.594;11.368;2022-09-09T02:34:40;5.55;;;4.68;;
44270;SDS011;29963;44.594;11.368;2022-09-09T02:37:12;10.45;;;4.65;;
44270;SDS011;29963;44.594;11.368;2022-09-09T02:39:40;5.35;;;4.50;;
44270;SDS011;29963;44.594;11.368;2022-09-09T02:42:06;8.48;;;3.95;;
44270;SDS011;29963;44.594;11.368;2022-09-09T02:44:33;6.70;;;4.35;;
44270;SDS011;29963;44.594;11.368;2022-09-09T02:52:41;8.00;;;5.55;;
44270;SDS011;29963;44.594;11.368;2022-09-09T02:55:24;7.80;;;5.05;;
44270;SDS011;29963;44.594;11.368;2022-09-09T02:57:54;7.03;;;4.93;;
44270;SDS011;29963;44.594;11.368;2022-09-09T03:00:25;6.72;;;4.60;;
44270;SDS011;29963;44.594;11.368;2022-09-09T03:02:53;6.60;;;4.60;;
44270;SDS011;29963;44.594;11.368;2022-09-09T03:05:21;7.18;;;4.93;;
44270;SDS011;29963;44.594;11.368;2022-09-09T03:07:47;9.05;;;5.38;;
44270;SDS011;29963;44.594;11.368;2022-09-09T03:10:14;13.30;;;4.90;;
44270;SDS011;29963;44.594;11.368;2022-09-09T03:12:40;10.20;;;5.72;;
44270;SDS011;29963;44.594;11.368;2022-09-09T03:15:06;9.23;;;5.70;;
44270;SDS011;29963;44.594;11.368;2022-09-09T03:17:32;7.63;;;5.35;;
44270;SDS011;29963;44.594;11.368;2022-09-09T03:19:58;5.03;;;4.55;;
44270;SDS011;29963;44.594;11.368;2022-09-09T03:22:24;8.82;;;5.15;;
44270;SDS011;29963;44.594;11.368;2022-09-09T03:24:50;11.48;;;6.07;;
44270;SDS011;29963;44.594;11.368;2022-09-09T03:27:16;12.23;;;6.97;;
44270;SDS011;29963;44.594;11.368;2022-09-09T03:29:44;5.65;;;4.72;;
44270;SDS011;29963;44.594;11.368;2022-09-09T03:32:10;7.97;;;5.22;;
44270;SDS011;29963;44.594;11.368;2022-09-09T03:34:37;9.68;;;4.93;;
44270;SDS011;29963;44.594;11.368;2022-09-09T03:37:05;9.38;;;5.35;;
44270;SDS011;29963;44.594;11.368;2022-09-09T03:39:31;7.40;;;5.10;;
44270;SDS011;29963;44.594;11.368;2022-09-09T03:41:57;6.32;;;5.65;;
44270;SDS011;29963;44.594;11.368;2022-09-09T03:44:22;8.95;;;5.97;;
44270;SDS011;29963;44.594;11.368;2022-09-09T03:46:48;7.82;;;5.00;;
44270;SDS011;29963;44.594;11.368;2022-09-09T03:49:14;7.18;;;5.32;;
44270;SDS011;29963;44.594;11.368;2022-09-09T03:51:40;7.35;;;6.35;;
44270;SDS011;29963;44.594;11.368;2022-09-09T03:54:06;9.73;;;5.38;;
44270;SDS011;29963;44.594;11.368;2022-09-09T03:56:35;6.20;;;4.75;;
44270;SDS011;29963;44.594;11.368;2022-09-09T03:59:00;5.57;;;4.57;;
44270;SDS011;29963;44.594;11.368;2022-09-09T04:01:26;6.53;;;5.82;;
44270;SDS011;29963;44.594;11.368;2022-09-09T04:03:53;6.00;;;4.85;;
44270;SDS011;29963;44.594;11.368;2022-09-09T04:06:20;5.72;;;4.55;;
44270;SDS011;29963;44.594;11.368;2022-09-09T04:08:46;6.97;;;5.25;;
44270;SDS011;29963;44.594;11.368;2022-09-09T04:11:13;7.05;;;5.47;;
44270;SDS011;29963;44.594;11.368;2022-09-09T04:13:40;6.50;;;4.57;;
44270;SDS011;29963;44.594;11.368;2022-09-09T04:16:07;7.20;;;4.88;;
44270;SDS011;29963;44.594;11.368;2022-09-09T04:18:35;7.10;;;4.65;;
44270;SDS011;29963;44.594;11.368;2022-09-09T04:21:01;10.23;;;5.28;;
44270;SDS011;29963;44.594;11.368;2022-09-09T04:23:28;7.03;;;4.97;;
44270;SDS011;29963;44.594;11.368;2022-09-09T04:25:54;6.25;;;5.03;;
44270;SDS011;29963;44.594;11.368;2022-09-09T04:28:23;9.15;;;5.10;;
44270;SDS011;29963;44.594;11.368;2022-09-09T04:30:50;8.23;;;5.30;;
44270;SDS011;29963;44.594;11.368;2022-09-09T04:33:20;9.48;;;4.53;;
44270;SDS011;29963;44.594;11.368;2022-09-09T04:35:46;9.45;;;6.13;;
44270;SDS011;29963;44.594;11.368;2022-09-09T04:38:14;11.13;;;5.45;;
44270;SDS011;29963;44.594;11.368;2022-09-09T04:40:42;7.88;;;5.45;;
44270;SDS011;29963;44.594;11.368;2022-09-09T04:43:09;11.10;;;5.10;;
44270;SDS011;29963;44.594;11.368;2022-09-09T04:45:35;6.25;;;5.20;;
44270;SDS011;29963;44.594;11.368;2022-09-09T04:48:01;7.97;;;6.38;;
44270;SDS011;29963;44.594;11.368;2022-09-09T04:50:27;7.30;;;5.18;;
44270;SDS011;29963;44.594;11.368;2022-09-09T04:52:53;8.45;;;5.70;;
44270;SDS011;29963;44.594;11.368;2022-09-09T04:55:19;8.25;;;5.32;;
44270;SDS011;29963;44.594;11.368;2022-09-09T04:57:45;6.20;;;5.55;;
44270;SDS011;29963;44.594;11.368;2022-09-09T05:00:11;8.35;;;5.55;;
44270;SDS011;29963;44.594;11.368;2022-09-09T05:02:37;7.93;;;5.75;;
44270;SDS011;29963;44.594;11.368;2022-09-09T05:05:07;9.77;;;6.13;;
44270;SDS011;29963;44.594;11.368;2022-09-09T05:07:33;7.47;;;6.50;;
44270;SDS011;29963;44.594;11.368;2022-09-09T05:09:59;8.75;;;6.55;;
44270;SDS011;29963;44.594;11.368;2022-09-09T05:12:24;9.90;;;6.57;;
44270;SDS011;29963;44.594;11.368;2022-09-09T05:14:53;12.07;;;5.93;;
44270;SDS011;29963;44.594;11.368;2022-09-09T05:17:19;8.23;;;5.35;;
44270;SDS011;29963;44.594;11.368;2022-09-09T05:19:45;7.22;;;5.35;;
44270;SDS011;29963;44.594;11.368;2022-09-09T05:22:10;7.88;;;5.93;;
44270;SDS011;29963;44.594;11.368;2022-09-09T05:24:37;7.88;;;5.60;;
44270;SDS011;29963;44.594;11.368;2022-09-09T05:27:03;6.55;;;4.90;;
44270;SDS011;29963;44.594;11.368;2022-09-09T05:29:31;6.18;;;5.53;;
44270;SDS011;29963;44.594;11.368;2022-09-09T05:31:58;10.52;;;6.53;;
44270;SDS011;29963;44.594;11.368;2022-09-09T05:34:27;6.55;;;5.93;;
44270;SDS011;29963;44.594;11.368;2022-09-09T05:36:52;7.10;;;4.88;;
44270;SDS011;29963;44.594;11.368;2022-09-09T05:39:18;7.45;;;6.72;;
44270;SDS011;29963;44.594;11.368;2022-09-09T05:41:44;10.05;;;6.90;;
44270;SDS011;29963;44.594;11.368;2022-09-09T05:44:09;9.48;;;7.93;;
44270;SDS011;29963;44.594;11.368;2022-09-09T05:46:38;9.50;;;6.95;;
44270;SDS011;29963;44.594;11.368;2022-09-09T05:49:04;6.40;;;5.72;;
44270;SDS011;29963;44.594;11.368;2022-09-09T05:51:31;8.23;;;6.60;;
44270;SDS011;29963;44.594;11.368;2022-09-09T05:54:00;11.43;;;6.90;;
44270;SDS011;29963;44.594;11.368;2022-09-09T05:56:26;8.52;;;7.68;;
44270;SDS011;29963;44.594;11.368;2022-09-09T05:58:54;11.65;;;8.60;;
44270;SDS011;29963;44.594;11.368;2022-09-09T06:01:21;8.15;;;7.30;;
44270;SDS011;29963;44.594;11.368;2022-09-09T06:03:51;11.43;;;7.57;;
44270;SDS011;29963;44.594;11.368;2022-09-09T06:06:18;8.05;;;7.28;;
44270;SDS011;29963;44.594;11.368;2022-09-09T06:08:46;10.15;;;7.50;;
44270;SDS011;29963;44.594;11.368;2022-09-09T06:11:17;9.80;;;6.68;;
44270;SDS011;29963;44.594;11.368;2022-09-09T06:13:47;14.07;;;8.07;;
44270;SDS011;29963;44.594;11.368;2022-09-09T06:16:16;13.73;;;8.57;;
44270;SDS011;29963;44.594;11.368;2022-09-09T06:18:43;9.95;;;7.80;;
44270;SDS011;29963;44.594;11.368;2022-09-09T06:21:11;7.95;;;7.18;;
44270;SDS011;29963;44.594;11.368;2022-09-09T06:23:41;8.18;;;5.80;;
44270;SDS011;29963;44.594;11.368;2022-09-09T06:26:10;8.63;;;5.63;;
44270;SDS011;29963;44.594;11.368;2022-09-09T06:28:38;5.90;;;4.55;;
44270;SDS011;29963;44.594;11.368;2022-09-09T06:31:04;7.35;;;5.18;;
44270;SDS011;29963;44.594;11.368;2022-09-09T06:33:32;5.60;;;4.40;;
44270;SDS011;29963;44.594;11.368;2022-09-09T06:36:05;6.97;;;5.45;;
44270;SDS011;29963;44.594;11.368;2022-09-09T06:38:31;8.38;;;5.80;;
44270;SDS011;29963;44.594;11.368;2022-09-09T06:40:57;8.75;;;5.68;;
44270;SDS011;29963;44.594;11.368;2022-09-09T06:43:24;8.00;;;6.68;;
44270;SDS011;29963;44.594;11.368;2022-09-09T06:46:01;8.68;;;7.30;;
44270;SDS011;29963;44.594;11.368;2022-09-09T06:48:30;8.90;;;7.45;;
44270;SDS011;29963;44.594;11.368;2022-09-09T06:51:15;9.25;;;8.02;;
44270;SDS011;29963;44.594;11.368;2022-09-09T06:53:43;15.70;;;7.90;;
44270;SDS011;29963;44.594;11.368;2022-09-09T06:58:36;11.90;;;7.93;;
44270;SDS011;29963;44.594;11.368;2022-09-09T07:01:09;10.48;;;7.72;;
44270;SDS011;29963;44.594;11.368;2022-09-09T07:03:37;10.23;;;7.47;;
44270;SDS011;29963;44.594;11.368;2022-09-09T07:06:03;14.05;;;9.82;;
44270;SDS011;29963;44.594;11.368;2022-09-09T07:08:30;18.52;;;11.90;;
44270;SDS011;29963;44.594;11.368;2022-09-09T07:11:03;18.75;;;11.02;;
44270;SDS011;29963;44.594;11.368;2022-09-09T07:13:30;16.50;;;13.02;;
44270;SDS011;29963;44.594;11.368;2022-09-09T07:16:03;16.50;;;11.00;;
44270;SDS011;29963;44.594;11.368;2022-09-09T07:18:32;17.52;;;9.55;;
44270;SDS011;29963;44.594;11.368;2022-09-09T07:20:59;15.73;;;10.15;;
44270;SDS011;29963;44.594;11.368;2022-09-09T07:23:27;10.35;;;7.47;;
44270;SDS011;29963;44.594;11.368;2022-09-09T07:25:53;14.57;;;9.55;;
44270;SDS011;29963;44.594;11.368;2022-09-09T07:28:20;14.27;;;9.18;;
44270;SDS011;29963;44.594;11.368;2022-09-09T07:30:52;10.13;;;9.05;;
44270;SDS011;29963;44.594;11.368;2022-09-09T07:33:19;14.82;;;8.30;;
44270;SDS011;29963;44.594;11.368;2022-09-09T07:35:45;11.38;;;7.57;;
44270;SDS011;29963;44.594;11.368;2022-09-09T07:38:11;14.13;;;9.73;;
44270;SDS011;29963;44.594;11.368;2022-09-09T07:40:36;12.32;;;9.38;;
44270;SDS011;29963;44.594;11.368;2022-09-09T07:43:02;12.00;;;8.88;;
44270;SDS011;29963;44.594;11.368;2022-09-09T07:45:28;14.90;;;8.68;;
44270;SDS011;29963;44.594;11.368;2022-09-09T07:47:54;17.23;;;9.65;;
44270;SDS011;29963;44.594;11.368;2022-09-09T07:50:21;15.52;;;9.25;;
44270;SDS011;29963;44.594;11.368;2022-09-09T07:52:48;16.67;;;11.45;;
44270;SDS011;29963;44.594;11.368;2022-09-09T07:55:14;17.05;;;11.95;;
44270;SDS011;29963;44.594;11.368;2022-09-09T07:57:40;18.05;;;10.70;;
44270;SDS011;29963;44.594;11.368;2022-09-09T08:00:06;19.02;;;10.38;;
44270;SDS011;29963;44.594;11.368;2022-09-09T08:02:35;14.13;;;9.93;;
44270;SDS011;29963;44.594;11.368;2022-09-09T08:05:01;13.90;;;10.98;;
44270;SDS011;29963;44.594;11.368;2022-09-09T08:07:27;13.52;;;9.50;;
44270;SDS011;29963;44.594;11.368;2022-09-09T08:09:53;13.85;;;8.82;;
44270;SDS011;29963;44.594;11.368;2022-09-09T08:12:20;15.07;;;9.32;;
44270;SDS011;29963;44.594;11.368;2022-09-09T08:14:46;14.82;;;10.10;;
44270;SDS011;29963;44.594;11.368;2022-09-09T08:17:13;16.95;;;9.10;;
44270;SDS011;29963;44.594;11.368;2022-09-09T08:19:39;10.25;;;8.18;;
44270;SDS011;29963;44.594;11.368;2022-09-09T08:22:05;11.32;;;8.18;;
44270;SDS011;29963;44.594;11.368;2022-09-09T08:24:32;11.60;;;9.02;;
44270;SDS011;29963;44.594;11.368;2022-09-09T08:26:58;12.23;;;7.63;;
44270;SDS011;29963;44.594;11.368;2022-09-09T08:29:24;12.93;;;7.95;;
44270;SDS011;29963;44.594;11.368;2022-09-09T08:31:53;11.75;;;7.95;;
44270;SDS011;29963;44.594;11.368;2022-09-09T08:34:22;10.88;;;8.88;;
44270;SDS011;29963;44.594;11.368;2022-09-09T08:36:49;10.13;;;6.93;;
44270;SDS011;29963;44.594;11.368;2022-09-09T08:39:17;14.57;;;8.93;;
44270;SDS011;29963;44.594;11.368;2022-09-09T08:49:51;10.18;;;7.90;;
44270;SDS011;29963;44.594;11.368;2022-09-09T08:58:17;13.27;;;7.20;;
44270;SDS011;29963;44.594;11.368;2022-09-09T09:00:52;10.77;;;8.20;;
44270;SDS011;29963;44.594;11.368;2022-09-09T09:03:35;9.57;;;5.72;;
44270;SDS011;29963;44.594;11.368;2022-09-09T09:11:56;9.48;;;6.60;;
44270;SDS011;29963;44.594;11.368;2022-09-09T09:14:26;8.07;;;5.95;;
44270;SDS011;29963;44.594;11.368;2022-09-09T09:19:23;8.48;;;4.60;;
44270;SDS011;29963;44.594;11.368;2022-09-09T09:24:18;9.60;;;7.28;;
44270;SDS011;29963;44.594;11.368;2022-09-09T09:26:45;7.72;;;5.45;;
44270;SDS011;29963;44.594;11.368;2022-09-09T09:29:17;10.25;;;6.40;;
44270;SDS011;29963;44.594;11.368;2022-09-09T09:31:51;9.88;;;4.50;;
44270;SDS011;29963;44.594;11.368;2022-09-09T09:34:22;6.45;;;5.65;;
44270;SDS011;29963;44.594;11.368;2022-09-09T09:39:26;7.93;;;4.93;;
44270;SDS011;29963;44.594;11.368;2022-09-09T09:41:53;7.03;;;4.65;;
44270;SDS011;29963;44.594;11.368;2022-09-09T09:44:22;5.90;;;3.83;;
44270;SDS011;29963;44.594;11.368;2022-09-09T09:46:51;5.85;;;4.05;;
44270;SDS011;29963;44.594;11.368;2022-09-09T09:49:17;6.60;;;3.13;;
44270;SDS011;29963;44.594;11.368;2022-09-09T09:51:43;7.25;;;3.28;;
44270;SDS011;29963;44.594;11.368;2022-09-09T09:54:14;6.93;;;4.07;;
44270;SDS011;29963;44.594;11.368;2022-09-09T09:56:44;5.30;;;4.10;;
44270;SDS011;29963;44.594;11.368;2022-09-09T09:59:20;9.43;;;4.15;;
44270;SDS011;29963;44.594;11.368;2022-09-09T10:01:47;6.97;;;4.60;;
44270;SDS011;29963;44.594;11.368;2022-09-09T10:06:45;9.68;;;4.32;;
44270;SDS011;29963;44.594;11.368;2022-09-09T10:09:29;11.50;;;5.18;;
44270;SDS011;29963;44.594;11.368;2022-09-09T10:17:54;3.75;;;3.00;;
44270;SDS011;29963;44.594;11.368;2022-09-09T10:20:32;7.03;;;2.70;;
44270;SDS011;29963;44.594;11.368;2022-09-09T10:23:05;9.88;;;3.08;;
44270;SDS011;29963;44.594;11.368;2022-09-09T10:59:33;2.35;;;1.02;;
44270;SDS011;29963;44.594;11.368;2022-09-09T11:01:55;3.80;;;1.13;;
44270;SDS011;29963;44.594;11.368;2022-09-09T11:04:40;3.72;;;1.27;;
44270;SDS011;29963;44.594;11.368;2022-09-09T16:56:08;3.72;;;1.55;;
44270;SDS011;29963;44.594;11.368;2022-09-09T16:58:35;6.45;;;1.50;;
44270;SDS011;29963;44.594;11.368;2022-09-09T17:01:01;2.55;;;1.90;;
44270;SDS011;29963;44.594;11.368;2022-09-09T17:03:28;6.53;;;2.58;;
44270;SDS011;29963;44.594;11.368;2022-09-09T17:05:54;4.07;;;1.83;;
44270;SDS011;29963;44.594;11.368;2022-09-09T17:08:20;3.40;;;1.67;;
44270;SDS011;29963;44.594;11.368;2022-09-09T17:42:27;6.13;;;4.53;;
44270;SDS011;29963;44.594;11.368;2022-09-09T17:44:53;5.93;;;3.08;;
44270;SDS011;29963;44.594;11.368;2022-09-09T17:47:18;3.15;;;1.30;;
44270;SDS011;29963;44.594;11.368;2022-09-09T17:49:45;5.60;;;2.28;;
44270;SDS011;29963;44.594;11.368;2022-09-09T17:52:11;5.43;;;1.75;;
44270;SDS011;29963;44.594;11.368;2022-09-09T17:54:36;4.70;;;2.15;;
44270;SDS011;29963;44.594;11.368;2022-09-09T17:57:02;2.50;;;1.55;;
44270;SDS011;29963;44.594;11.368;2022-09-09T17:59:28;4.38;;;2.00;;
44270;SDS011;29963;44.594;11.368;2022-09-09T18:01:54;3.40;;;2.60;;
44270;SDS011;29963;44.594;11.368;2022-09-09T18:04:20;5.80;;;2.33;;
44270;SDS011;29963;44.594;11.368;2022-09-09T18:06:47;4.38;;;2.05;;
44270;SDS011;29963;44.594;11.368;2022-09-09T18:09:16;4.00;;;2.03;;
44270;SDS011;29963;44.594;11.368;2022-09-09T18:11:45;4.03;;;1.50;;
44270;SDS011;29963;44.594;11.368;2022-09-09T18:14:17;4.75;;;2.00;;
44270;SDS011;29963;44.594;11.368;2022-09-09T18:16:48;5.60;;;2.00;;
44270;SDS011;29963;44.594;11.368;2022-09-09T18:19:16;3.88;;;2.00;;
44270;SDS011;29963;44.594;11.368;2022-09-09T18:21:43;3.80;;;1.75;;
44270;SDS011;29963;44.594;11.368;2022-09-09T18:24:10;4.32;;;1.92;;
44270;SDS011;29963;44.594;11.368;2022-09-09T18:26:36;3.75;;;2.15;;
44270;SDS011;29963;44.594;11.368;2022-09-09T18:29:05;3.53;;;2.95;;
44270;SDS011;29963;44.594;11.368;2022-09-09T18:31:34;6.97;;;3.67;;
44270;SDS011;29963;44.594;11.368;2022-09-09T18:34:01;3.63;;;2.53;;
44270;SDS011;29963;44.594;11.368;2022-09-09T18:36:29;4.93;;;2.17;;
44270;SDS011;29963;44.594;11.368;2022-09-09T18:39:19;3.63;;;2.35;;
44270;SDS011;29963;44.594;11.368;2022-09-09T18:41:48;4.25;;;2.13;;
44270;SDS011;29963;44.594;11.368;2022-09-09T18:44:17;2.72;;;1.80;;
44270;SDS011;29963;44.594;11.368;2022-09-09T18:46:44;5.68;;;2.65;;
44270;SDS011;29963;44.594;11.368;2022-09-09T18:49:11;5.70;;;2.00;;
44270;SDS011;29963;44.594;11.368;2022-09-09T18:51:37;5.95;;;2.33;;
44270;SDS011;29963;44.594;11.368;2022-09-09T18:54:27;8.35;;;2.75;;
44270;SDS011;29963;44.594;11.368;2022-09-09T18:56:53;7.22;;;2.22;;
44270;SDS011;29963;44.594;11.368;2022-09-09T18:59:20;3.03;;;2.42;;
44270;SDS011;29963;44.594;11.368;2022-09-09T19:01:48;5.90;;;2.47;;
44270;SDS011;29963;44.594;11.368;2022-09-09T19:04:15;5.07;;;3.15;;
44270;SDS011;29963;44.594;11.368;2022-09-09T19:06:43;4.75;;;2.80;;
44270;SDS011;29963;44.594;11.368;2022-09-09T19:09:12;4.43;;;2.38;;
44270;SDS011;29963;44.594;11.368;2022-09-09T19:11:39;10.93;;;3.10;;
44270;SDS011;29963;44.594;11.368;2022-09-09T19:14:06;8.52;;;3.67;;
44270;SDS011;29963;44.594;11.368;2022-09-09T19:16:35;8.82;;;6.18;;
44270;SDS011;29963;44.594;11.368;2022-09-09T19:19:03;24.83;;;19.88;;
44270;SDS011;29963;44.594;11.368;2022-09-09T19:21:31;20.60;;;13.75;;
44270;SDS011;29963;44.594;11.368;2022-09-09T19:26:33;9.68;;;8.73;;
44270;SDS011;29963;44.594;11.368;2022-09-09T19:29:04;9.77;;;3.63;;
44270;SDS011;29963;44.594;11.368;2022-09-09T19:31:31;6.68;;;4.07;;
44270;SDS011;29963;44.594;11.368;2022-09-09T19:33:59;6.47;;;3.60;;
44270;SDS011;29963;44.594;11.368;2022-09-09T19:36:25;7.68;;;2.85;;
44270;SDS011;29963;44.594;11.368;2022-09-09T19:38:55;6.55;;;3.22;;
44270;SDS011;29963;44.594;11.368;2022-09-09T19:41:22;3.92;;;2.25;;
44270;SDS011;29963;44.594;11.368;2022-09-09T19:43:49;3.67;;;2.58;;
44270;SDS011;29963;44.594;11.368;2022-09-09T19:46:16;7.25;;;2.42;;
44270;SDS011;29963;44.594;11.368;2022-09-09T19:48:43;5.13;;;2.65;;
44270;SDS011;29963;44.594;11.368;2022-09-09T19:51:10;5.15;;;3.03;;
44270;SDS011;29963;44.594;11.368;2022-09-09T19:53:44;6.43;;;3.25;;
44270;SDS011;29963;44.594;11.368;2022-09-09T19:56:13;6.53;;;3.42;;
44270;SDS011;29963;44.594;11.368;2022-09-09T19:58:40;7.18;;;2.95;;
44270;SDS011;29963;44.594;11.368;2022-09-09T20:03:56;10.23;;;6.05;;
44270;SDS011;29963;44.594;11.368;2022-09-09T20:06:25;7.28;;;5.18;;
44270;SDS011;29963;44.594;11.368;2022-09-09T20:08:53;4.88;;;4.18;;
44270;SDS011;29963;44.594;11.368;2022-09-09T20:11:19;6.68;;;3.80;;
44270;SDS011;29963;44.594;11.368;2022-09-09T20:13:46;5.40;;;3.25;;
44270;SDS011;29963;44.594;11.368;2022-09-09T20:16:19;5.38;;;3.47;;
44270;SDS011;29963;44.594;11.368;2022-09-09T20:18:47;8.27;;;3.70;;
44270;SDS011;29963;44.594;11.368;2022-09-09T20:21:20;4.72;;;3.08;;
44270;SDS011;29963;44.594;11.368;2022-09-09T20:23:48;6.78;;;3.58;;
44270;SDS011;29963;44.594;11.368;2022-09-09T20:26:15;6.97;;;4.25;;
44270;SDS011;29963;44.594;11.368;2022-09-09T20:28:44;9.35;;;3.95;;
44270;SDS011;29963;44.594;11.368;2022-09-09T20:31:16;6.30;;;3.67;;
44270;SDS011;29963;44.594;11.368;2022-09-09T20:33:46;4.63;;;3.20;;
44270;SDS011;29963;44.594;11.368;2022-09-09T20:38:44;7.20;;;3.30;;
44270;SDS011;29963;44.594;11.368;2022-09-09T20:41:13;8.00;;;3.35;;
44270;SDS011;29963;44.594;11.368;2022-09-09T20:43:45;7.78;;;3.72;;
44270;SDS011;29963;44.594;11.368;2022-09-09T20:46:19;4.70;;;2.83;;
44270;SDS011;29963;44.594;11.368;2022-09-09T20:48:46;5.32;;;2.85;;
44270;SDS011;29963;44.594;11.368;2022-09-09T20:51:14;5.70;;;3.28;;
44270;SDS011;29963;44.594;11.368;2022-09-09T20:53:44;9.15;;;3.72;;
44270;SDS011;29963;44.594;11.368;2022-09-09T20:56:10;9.93;;;3.42;;
44270;SDS011;29963;44.594;11.368;2022-09-09T20:58:40;10.05;;;3.90;;
44270;SDS011;29963;44.594;11.368;2022-09-09T21:01:10;5.80;;;3.20;;
44270;SDS011;29963;44.594;11.368;2022-09-09T21:03:39;4.78;;;2.58;;
44270;SDS011;29963;44.594;11.368;2022-09-09T21:06:05;3.75;;;2.72;;
44270;SDS011;29963;44.594;11.368;2022-09-09T21:08:32;8.95;;;3.05;;
44270;SDS011;29963;44.594;11.368;2022-09-09T21:10:58;4.30;;;3.20;;
44270;SDS011;29963;44.594;11.368;2022-09-09T21:13:28;8.13;;;3.88;;
44270;SDS011;29963;44.594;11.368;2022-09-09T21:15:54;6.05;;;3.15;;
44270;SDS011;29963;44.594;11.368;2022-09-09T21:18:21;8.30;;;3.75;;
44270;SDS011;29963;44.594;11.368;2022-09-09T21:20:47;5.07;;;3.38;;
44270;SDS011;29963;44.594;11.368;2022-09-09T21:23:13;5.85;;;3.42;;
44270;SDS011;29963;44.594;11.368;2022-09-09T21:25:40;5.28;;;2.90;;
44270;SDS011;29963;44.594;11.368;2022-09-09T21:28:07;7.00;;;3.50;;
44270;SDS011;29963;44.594;11.368;2022-09-09T21:30:34;7.93;;;3.63;;
44270;SDS011;29963;44.594;11.368;2022-09-09T21:33:00;4.95;;;4.10;;
44270;SDS011;29963;44.594;11.368;2022-09-09T21:35:28;6.95;;;4.60;;
44270;SDS011;29963;44.594;11.368;2022-09-09T21:37:54;8.10;;;4.43;;
44270;SDS011;29963;44.594;11.368;2022-09-09T21:40:20;6.25;;;3.97;;
44270;SDS011;29963;44.594;11.368;2022-09-09T21:42:46;7.97;;;3.58;;
44270;SDS011;29963;44.594;11.368;2022-09-09T21:45:12;8.15;;;4.30;;
44270;SDS011;29963;44.594;11.368;2022-09-09T21:47:39;8.07;;;3.47;;
44270;SDS011;29963;44.594;11.368;2022-09-09T21:50:10;7.15;;;4.00;;
44270;SDS011;29963;44.594;11.368;2022-09-09T21:52:35;8.68;;;3.03;;
44270;SDS011;29963;44.594;11.368;2022-09-09T21:55:01;3.78;;;2.42;;
44270;SDS011;29963;44.594;11.368;2022-09-09T21:57:26;6.55;;;3.20;;
44270;SDS011;29963;44.594;11.368;2022-09-09T21:59:52;5.20;;;3.40;;
44270;SDS011;29963;44.594;11.368;2022-09-09T22:02:18;5.85;;;3.97;;
44270;SDS011;29963;44.594;11.368;2022-09-09T22:04:45;4.28;;;3.38;;
44270;SDS011;29963;44.594;11.368;2022-09-09T22:07:11;5.57;;;3.30;;
44270;SDS011;29963;44.594;11.368;2022-09-09T22:09:41;6.65;;;2.95;;
44270;SDS011;29963;44.594;11.368;2022-09-09T22:12:07;4.95;;;2.95;;
44270;SDS011;29963;44.594;11.368;2022-09-09T22:14:33;7.20;;;3.53;;
44270;SDS011;29963;44.594;11.368;2022-09-09T22:17:00;10.68;;;3.20;;
44270;SDS011;29963;44.594;11.368;2022-09-09T22:19:25;5.10;;;2.90;;
44270;SDS011;29963;44.594;11.368;2022-09-09T22:21:51;4.05;;;2.60;;
44270;SDS011;29963;44.594;11.368;2022-09-09T22:24:17;6.90;;;2.85;;
44270;SDS011;29963;44.594;11.368;2022-09-09T22:26:42;5.53;;;2.80;;
44270;SDS011;29963;44.594;11.368;2022-09-09T22:29:08;6.65;;;3.08;;
44270;SDS011;29963;44.594;11.368;2022-09-09T22:31:34;4.50;;;2.83;;
44270;SDS011;29963;44.594;11.368;2022-09-09T22:34:00;6.20;;;3.05;;
44270;SDS011;29963;44.594;11.368;2022-09-09T22:36:26;7.85;;;2.95;;
44270;SDS011;29963;44.594;11.368;2022-09-09T22:38:52;6.57;;;2.50;;
44270;SDS011;29963;44.594;11.368;2022-09-09T22:41:18;3.95;;;2.75;;
44270;SDS011;29963;44.594;11.368;2022-09-09T22:43:44;3.70;;;2.45;;
44270;SDS011;29963;44.594;11.368;2022-09-09T22:46:10;6.03;;;4.47;;
44270;SDS011;29963;44.594;11.368;2022-09-09T22:48:36;10.95;;;3.38;;
44270;SDS011;29963;44.594;11.368;2022-09-09T22:51:06;5.18;;;2.95;;
44270;SDS011;29963;44.594;11.368;2022-09-09T22:53:33;4.38;;;2.83;;
44270;SDS011;29963;44.594;11.368;2022-09-09T22:56:01;5.28;;;2.97;;
44270;SDS011;29963;44.594;11.368;2022-09-09T22:58:29;4.63;;;2.85;;
44270;SDS011;29963;44.594;11.368;2022-09-09T23:00:57;6.10;;;2.50;;
44270;SDS011;29963;44.594;11.368;2022-09-09T23:03:27;5.03;;;3.03;;
44270;SDS011;29963;44.594;11.368;2022-09-09T23:05:55;5.60;;;3.20;;
44270;SDS011;29963;44.594;11.368;2022-09-09T23:08:23;5.18;;;3.13;;